createdAt,value
2023-04-11T00:00:48.053Z,22.94
2023-04-11T00:01:48.062Z,22.91
2023-04-11T00:02:48.289Z,22.90
2023-04-11T00:03:48.285Z,22.86
2023-04-11T00:04:48.075Z,22.79
2023-04-11T00:05:48.008Z,22.76
2023-04-11T00:06:48.137Z,22.79
2023-04-11T00:07:47.998Z,22.77
2023-04-11T00:08:48.035Z,22.78
2023-04-11T00:09:47.984Z,22.81
2023-04-11T00:10:47.988Z,22.83
2023-04-11T00:11:47.998Z,22.80
2023-04-11T00:12:48.050Z,22.75
2023-04-11T00:13:47.954Z,22.72
2023-04-11T00:14:47.948Z,22.73
2023-04-11T00:15:47.989Z,22.71
2023-04-11T00:16:47.961Z,22.70
2023-04-11T00:17:47.973Z,22.70
2023-04-11T00:18:47.931Z,22.71
2023-04-11T00:19:47.924Z,22.79
2023-04-11T00:20:47.911Z,22.77
2023-04-11T00:21:47.904Z,22.77
2023-04-11T00:22:47.897Z,22.74
2023-04-11T00:23:47.888Z,22.81
2023-04-11T00:24:47.896Z,22.79
2023-04-11T00:25:47.873Z,22.78
2023-04-11T00:26:47.872Z,22.78
2023-04-11T00:27:47.862Z,22.83
2023-04-11T00:28:47.854Z,22.80
2023-04-11T00:29:47.845Z,22.79
2023-04-11T00:30:47.953Z,22.81
2023-04-11T00:31:47.849Z,22.78
2023-04-11T00:32:47.876Z,22.82
2023-04-11T00:33:47.818Z,22.82
2023-04-11T00:34:47.821Z,22.83
2023-04-11T00:35:47.845Z,22.84
2023-04-11T00:36:47.844Z,22.81
2023-04-11T00:37:47.805Z,22.81
2023-04-11T00:38:47.808Z,22.81
2023-04-11T00:39:47.775Z,22.84
2023-04-11T00:40:47.769Z,22.85
2023-04-11T00:41:47.763Z,22.87
2023-04-11T00:42:47.784Z,22.87
2023-04-11T00:43:47.740Z,22.87
2023-04-11T00:44:47.741Z,22.86
2023-04-11T00:45:47.869Z,22.88
2023-04-11T00:46:47.748Z,22.81
2023-04-11T00:47:47.744Z,22.85
2023-04-11T00:48:47.730Z,22.87
2023-04-11T00:49:47.716Z,22.85
2023-04-11T00:50:47.717Z,22.86
2023-04-11T00:51:47.705Z,22.83
2023-04-11T00:52:47.699Z,22.81
2023-04-11T00:53:47.772Z,22.82
2023-04-11T00:54:47.698Z,22.84
2023-04-11T00:55:47.676Z,22.85
2023-04-11T00:56:47.661Z,22.86
2023-04-11T00:57:47.775Z,22.86
2023-04-11T00:58:47.659Z,22.85
2023-04-11T00:59:47.651Z,22.87
2023-04-11T01:00:47.714Z,22.85
2023-04-11T01:01:47.677Z,22.85
2023-04-11T01:02:47.688Z,22.85
2023-04-11T01:03:47.769Z,22.82
2023-04-11T01:04:47.624Z,22.82
2023-04-11T01:05:47.619Z,22.86
2023-04-11T01:06:47.630Z,22.84
2023-04-11T01:07:47.608Z,22.87
2023-04-11T01:08:47.586Z,22.87
2023-04-11T01:09:48.220Z,22.84
2023-04-11T01:10:48.155Z,22.85
2023-04-11T01:11:47.581Z,22.85
2023-04-11T01:12:47.561Z,22.84
2023-04-11T01:13:47.560Z,22.85
2023-04-11T01:14:47.544Z,22.83
2023-04-11T01:15:47.543Z,22.83
2023-04-11T01:16:47.610Z,22.82
2023-04-11T01:17:47.593Z,22.82
2023-04-11T01:18:47.518Z,22.83
2023-04-11T01:19:47.510Z,22.83
2023-04-11T01:20:47.512Z,22.80
2023-04-11T01:21:47.499Z,22.81
2023-04-11T01:22:47.552Z,22.84
2023-04-11T01:23:47.477Z,22.85
2023-04-11T01:24:47.475Z,22.81
2023-04-11T01:25:47.474Z,22.80
2023-04-11T01:26:47.465Z,22.84
2023-04-11T01:27:47.457Z,22.82
2023-04-11T01:28:47.671Z,22.81
2023-04-11T01:29:47.496Z,22.83
2023-04-11T01:30:47.479Z,22.82
2023-04-11T01:31:48.230Z,22.80
2023-04-11T01:32:47.467Z,22.81
2023-04-11T01:33:47.409Z,22.80
2023-04-11T01:34:47.395Z,22.79
2023-04-11T01:35:47.428Z,22.80
2023-04-11T01:36:47.475Z,22.83
2023-04-11T01:37:47.380Z,22.85
2023-04-11T01:38:47.355Z,22.84
2023-04-11T01:39:47.354Z,22.86
2023-04-11T01:40:47.350Z,22.84
2023-04-11T01:41:47.341Z,22.85
2023-04-11T01:42:47.327Z,22.86
2023-04-11T01:43:47.331Z,22.83
2023-04-11T01:44:47.320Z,22.81
2023-04-11T01:45:47.307Z,22.82
2023-04-11T01:46:47.303Z,22.84
2023-04-11T01:47:49.010Z,22.81
2023-04-11T01:48:47.355Z,22.84
2023-04-11T01:49:47.292Z,22.87
2023-04-11T01:50:47.278Z,22.82
2023-04-11T01:51:47.273Z,22.83
2023-04-11T01:52:47.253Z,22.78
2023-04-11T01:53:47.260Z,22.77
2023-04-11T01:54:47.247Z,22.82
2023-04-11T01:55:47.240Z,22.83
2023-04-11T01:56:47.248Z,22.79
2023-04-11T01:57:47.231Z,22.83
2023-04-11T01:58:47.223Z,22.81
2023-04-11T01:59:47.210Z,22.83
2023-04-11T02:00:47.197Z,22.84
2023-04-11T02:01:47.236Z,22.84
2023-04-11T02:02:47.321Z,22.84
2023-04-11T02:03:47.239Z,22.80
2023-04-11T02:04:47.176Z,22.80
2023-04-11T02:05:47.175Z,22.79
2023-04-11T02:06:47.191Z,22.82
2023-04-11T02:07:47.168Z,22.81
2023-04-11T02:08:47.146Z,22.82
2023-04-11T02:09:47.143Z,22.81
2023-04-11T02:10:47.144Z,22.84
2023-04-11T02:11:47.133Z,22.84
2023-04-11T02:12:47.137Z,22.83
2023-04-11T02:13:47.122Z,22.84
2023-04-11T02:14:47.109Z,22.85
2023-04-11T02:15:47.156Z,22.84
2023-04-11T02:16:47.092Z,22.77
2023-04-11T02:17:47.127Z,22.78
2023-04-11T02:18:47.085Z,22.80
2023-04-11T02:19:47.078Z,22.83
2023-04-11T02:20:47.067Z,22.81
2023-04-11T02:21:47.064Z,22.78
2023-04-11T02:22:47.064Z,22.80
2023-04-11T02:23:47.061Z,22.82
2023-04-11T02:24:47.035Z,22.84
2023-04-11T02:25:47.033Z,22.85
2023-04-11T02:26:47.022Z,22.81
2023-04-11T02:27:47.023Z,22.83
2023-04-11T02:28:47.009Z,22.79
2023-04-11T02:29:47.001Z,22.79
2023-04-11T02:30:47.086Z,22.85
2023-04-11T02:31:47.041Z,22.84
2023-04-11T02:32:47.010Z,22.84
2023-04-11T02:33:46.970Z,22.82
2023-04-11T02:34:47.033Z,22.84
2023-04-11T02:35:47.062Z,22.81
2023-04-11T02:36:47.002Z,22.83
2023-04-11T02:37:46.943Z,22.85
2023-04-11T02:38:47.021Z,22.86
2023-04-11T02:39:46.931Z,22.84
2023-04-11T02:40:46.923Z,22.85
2023-04-11T02:41:46.915Z,22.85
2023-04-11T02:42:46.911Z,22.79
2023-04-11T02:43:46.912Z,22.81
2023-04-11T02:44:46.892Z,22.79
2023-04-11T02:45:46.889Z,22.82
2023-04-11T02:46:46.985Z,22.79
2023-04-11T02:47:46.887Z,22.80
2023-04-11T02:48:46.884Z,22.79
2023-04-11T02:49:46.854Z,22.79
2023-04-11T02:50:46.848Z,22.78
2023-04-11T02:51:46.840Z,22.74
2023-04-11T02:52:47.828Z,22.74
2023-04-11T02:53:46.827Z,22.73
2023-04-11T02:54:46.818Z,22.76
2023-04-11T02:55:46.830Z,22.80
2023-04-11T02:56:46.861Z,22.80
2023-04-11T02:57:46.871Z,22.79
2023-04-11T02:58:46.788Z,22.76
2023-04-11T02:59:46.779Z,22.74
2023-04-11T03:00:47.202Z,22.77
2023-04-11T03:01:46.826Z,22.79
2023-04-11T03:02:46.842Z,22.79
2023-04-11T03:03:46.817Z,22.79
2023-04-11T03:04:46.756Z,22.81
2023-04-11T03:05:46.754Z,22.79
2023-04-11T03:06:46.732Z,22.80
2023-04-11T03:07:46.729Z,22.83
2023-04-11T03:08:46.743Z,22.83
2023-04-11T03:09:46.741Z,22.85
2023-04-11T03:10:46.716Z,22.84
2023-04-11T03:11:47.466Z,22.82
2023-04-11T03:12:46.697Z,22.83
2023-04-11T03:13:46.696Z,22.84
2023-04-11T03:14:46.684Z,22.81
2023-04-11T03:15:46.716Z,22.83
2023-04-11T03:16:46.668Z,22.80
2023-04-11T03:17:47.237Z,22.80
2023-04-11T03:18:46.665Z,22.82
2023-04-11T03:19:46.647Z,22.81
2023-04-11T03:20:46.636Z,22.80
2023-04-11T03:21:46.635Z,22.87
2023-04-11T03:22:47.212Z,22.82
2023-04-11T03:23:46.632Z,22.83
2023-04-11T03:24:46.619Z,22.84
2023-04-11T03:25:46.611Z,22.85
2023-04-11T03:26:46.623Z,22.82
2023-04-11T03:27:46.592Z,22.79
2023-04-11T03:28:46.609Z,22.78
2023-04-11T03:29:46.589Z,22.77
2023-04-11T03:30:46.583Z,22.82
2023-04-11T03:31:46.641Z,22.86
2023-04-11T03:32:46.596Z,22.83
2023-04-11T03:33:46.556Z,22.85
2023-04-11T03:34:46.547Z,22.85
2023-04-11T03:35:46.551Z,22.80
2023-04-11T03:36:46.532Z,22.86
2023-04-11T03:37:46.522Z,22.89
2023-04-11T03:38:46.519Z,22.83
2023-04-11T03:39:46.518Z,22.83
2023-04-11T03:40:46.506Z,22.85
2023-04-11T03:41:46.504Z,22.84
2023-04-11T03:42:46.486Z,22.87
2023-04-11T03:43:46.481Z,22.86
2023-04-11T03:44:47.215Z,22.82
2023-04-11T03:45:46.468Z,22.86
2023-04-11T03:46:46.532Z,22.85
2023-04-11T03:47:46.473Z,22.85
2023-04-11T03:48:46.518Z,22.84
2023-04-11T03:49:46.431Z,22.86
2023-04-11T03:50:46.533Z,22.85
2023-04-11T03:51:46.437Z,22.86
2023-04-11T03:52:46.415Z,22.86
2023-04-11T03:53:46.424Z,22.86
2023-04-11T03:54:47.783Z,22.84
2023-04-11T03:55:46.396Z,22.85
2023-04-11T03:56:46.456Z,22.85
2023-04-11T03:57:46.380Z,22.86
2023-04-11T03:58:46.377Z,22.85
2023-04-11T03:59:46.363Z,22.85
2023-04-11T04:00:46.372Z,22.86
2023-04-11T04:01:46.416Z,22.87
2023-04-11T04:02:46.494Z,22.86
2023-04-11T04:03:46.467Z,22.86
2023-04-11T04:04:46.430Z,22.86
2023-04-11T04:05:46.324Z,22.86
2023-04-11T04:06:46.317Z,22.89
2023-04-11T04:07:46.307Z,22.85
2023-04-11T04:08:46.739Z,22.85
2023-04-11T04:09:46.297Z,22.87
2023-04-11T04:10:46.305Z,22.89
2023-04-11T04:11:46.281Z,22.90
2023-04-11T04:12:46.278Z,22.90
2023-04-11T04:13:46.276Z,22.89
2023-04-11T04:14:46.259Z,22.85
2023-04-11T04:15:46.259Z,22.88
2023-04-11T04:16:46.289Z,22.85
2023-04-11T04:17:46.278Z,22.87
2023-04-11T04:18:46.241Z,22.91
2023-04-11T04:19:46.223Z,22.91
2023-04-11T04:20:46.225Z,22.85
2023-04-11T04:21:46.217Z,22.86
2023-04-11T04:22:46.205Z,22.87
2023-04-11T04:23:46.205Z,22.86
2023-04-11T04:24:46.189Z,22.89
2023-04-11T04:25:46.194Z,22.87
2023-04-11T04:26:46.191Z,22.88
2023-04-11T04:27:46.178Z,22.90
2023-04-11T04:28:46.179Z,22.92
2023-04-11T04:29:46.186Z,22.85
2023-04-11T04:30:46.154Z,22.90
2023-04-11T04:31:46.182Z,22.83
2023-04-11T04:32:46.209Z,22.85
2023-04-11T04:33:46.125Z,22.89
2023-04-11T04:34:46.118Z,22.89
2023-04-11T04:35:46.172Z,22.88
2023-04-11T04:36:46.116Z,22.88
2023-04-11T04:37:46.275Z,22.91
2023-04-11T04:38:46.101Z,22.87
2023-04-11T04:39:46.736Z,22.93
2023-04-11T04:40:46.845Z,22.93
2023-04-11T04:41:46.087Z,22.90
2023-04-11T04:42:46.065Z,22.89
2023-04-11T04:43:46.072Z,22.93
2023-04-11T04:44:46.053Z,22.91
2023-04-11T04:45:46.159Z,22.88
2023-04-11T04:46:46.051Z,22.89
2023-04-11T04:47:46.110Z,22.91
2023-04-11T04:48:46.030Z,22.90
2023-04-11T04:49:46.021Z,22.90
2023-04-11T04:50:46.012Z,22.91
2023-04-11T04:51:46.009Z,22.90
2023-04-11T04:52:46.000Z,22.88
2023-04-11T04:53:45.996Z,22.91
2023-04-11T04:54:45.990Z,22.92
2023-04-11T04:55:45.979Z,22.91
2023-04-11T04:56:45.974Z,22.92
2023-04-11T04:57:45.961Z,22.91
2023-04-11T04:58:45.960Z,22.93
2023-04-11T04:59:45.967Z,22.93
2023-04-11T05:00:45.972Z,22.93
2023-04-11T05:01:46.043Z,22.95
2023-04-11T05:02:46.087Z,22.95
2023-04-11T05:03:46.036Z,22.98
2023-04-11T05:04:45.953Z,22.95
2023-04-11T05:05:45.962Z,22.97
2023-04-11T05:06:45.983Z,22.97
2023-04-11T05:07:45.970Z,22.97
2023-04-11T05:08:45.998Z,22.96
2023-04-11T05:09:45.979Z,22.95
2023-04-11T05:10:45.986Z,22.96
2023-04-11T05:11:45.999Z,22.93
2023-04-11T05:12:45.995Z,22.98
2023-04-11T05:13:45.999Z,22.97
2023-04-11T05:14:45.988Z,22.95
2023-04-11T05:15:45.983Z,22.97
2023-04-11T05:16:46.045Z,22.97
2023-04-11T05:17:46.054Z,22.97
2023-04-11T05:18:46.021Z,23.19
2023-04-11T05:19:46.036Z,24.15
2023-04-11T05:20:46.029Z,24.43
2023-04-11T05:21:46.044Z,24.68
2023-04-11T05:22:46.043Z,24.27
2023-04-11T05:23:46.052Z,24.57
2023-04-11T05:24:46.061Z,24.75
2023-04-11T05:25:46.058Z,24.78
2023-04-11T05:26:46.079Z,24.69
2023-04-11T05:27:46.074Z,24.63
2023-04-11T05:28:46.077Z,24.62
2023-04-11T05:29:46.075Z,24.76
2023-04-11T05:30:46.105Z,24.73
2023-04-11T05:31:46.070Z,24.69
2023-04-11T05:32:46.101Z,24.74
2023-04-11T05:33:46.077Z,24.71
2023-04-11T05:34:46.072Z,24.68
2023-04-11T05:35:46.091Z,24.67
2023-04-11T05:36:46.425Z,24.68
2023-04-11T05:37:46.764Z,24.60
2023-04-11T05:38:46.077Z,24.62
2023-04-11T05:39:46.069Z,24.59
2023-04-11T05:40:46.155Z,24.54
2023-04-11T05:41:46.067Z,24.52
2023-04-11T05:42:46.078Z,24.51
2023-04-11T05:43:46.088Z,24.52
2023-04-11T05:44:46.082Z,24.48
2023-04-11T05:45:46.120Z,24.43
2023-04-11T05:46:46.070Z,24.42
2023-04-11T05:47:46.099Z,24.43
2023-04-11T05:48:46.074Z,24.44
2023-04-11T05:49:46.070Z,24.38
2023-04-11T05:50:46.078Z,24.40
2023-04-11T05:51:46.074Z,24.38
2023-04-11T05:52:46.074Z,24.44
2023-04-11T05:53:46.072Z,24.42
2023-04-11T05:54:46.078Z,24.40
2023-04-11T05:55:46.765Z,24.41
2023-04-11T05:56:46.105Z,24.41
2023-04-11T05:57:46.120Z,24.45
2023-04-11T05:58:46.128Z,24.39
2023-04-11T05:59:46.153Z,24.38
2023-04-11T06:00:46.238Z,24.37
2023-04-11T06:01:46.364Z,24.38
2023-04-11T06:02:46.377Z,24.37
2023-04-11T06:03:46.419Z,24.37
2023-04-11T06:04:46.393Z,24.35
2023-04-11T06:05:46.301Z,24.33
2023-04-11T06:06:46.321Z,24.31
2023-04-11T06:07:47.279Z,24.30
2023-04-11T06:08:46.379Z,24.29
2023-04-11T06:09:46.358Z,24.30
2023-04-11T06:10:46.363Z,24.27
2023-04-11T06:11:46.364Z,24.27
2023-04-11T06:12:46.369Z,24.28
2023-04-11T06:13:46.390Z,24.29
2023-04-11T06:14:46.387Z,24.28
2023-04-11T06:15:46.432Z,24.30
2023-04-11T06:16:46.417Z,24.25
2023-04-11T06:17:46.460Z,24.28
2023-04-11T06:18:47.339Z,24.25
2023-04-11T06:19:46.455Z,24.24
2023-04-11T06:20:46.462Z,24.25
2023-04-11T06:21:46.468Z,24.27
2023-04-11T06:22:46.456Z,24.27
2023-04-11T06:23:46.479Z,24.25
2023-04-11T06:24:46.479Z,24.25
2023-04-11T06:25:46.485Z,24.23
2023-04-11T06:26:46.493Z,24.23
2023-04-11T06:27:46.826Z,24.21
2023-04-11T06:28:46.522Z,24.20
2023-04-11T06:29:46.529Z,24.20
2023-04-11T06:30:46.541Z,24.21
2023-04-11T06:31:46.693Z,24.21
2023-04-11T06:32:46.582Z,24.18
2023-04-11T06:33:46.556Z,24.17
2023-04-11T06:34:46.556Z,24.16
2023-04-11T06:35:46.569Z,24.15
2023-04-11T06:36:46.569Z,24.11
2023-04-11T06:37:46.570Z,24.11
2023-04-11T06:38:46.593Z,24.13
2023-04-11T06:39:46.618Z,24.11
2023-04-11T06:40:46.573Z,24.10
2023-04-11T06:41:46.591Z,24.11
2023-04-11T06:42:46.578Z,24.09
2023-04-11T06:43:46.579Z,24.07
2023-04-11T06:44:46.608Z,24.07
2023-04-11T06:45:46.591Z,24.06
2023-04-11T06:46:46.705Z,24.06
2023-04-11T06:47:46.649Z,24.07
2023-04-11T06:48:46.587Z,24.05
2023-04-11T06:49:46.588Z,24.06
2023-04-11T06:50:46.800Z,24.03
2023-04-11T06:51:46.577Z,24.06
2023-04-11T06:52:46.587Z,24.04
2023-04-11T06:53:46.795Z,24.01
2023-04-11T06:54:46.605Z,24.05
2023-04-11T06:55:46.618Z,24.01
2023-04-11T06:56:46.646Z,24.03
2023-04-11T06:57:46.657Z,24.04
2023-04-11T06:58:46.676Z,24.01
2023-04-11T06:59:46.673Z,24.03
2023-04-11T07:00:46.701Z,24.01
2023-04-11T07:01:46.773Z,23.99
2023-04-11T07:02:46.933Z,23.98
2023-04-11T07:03:46.870Z,23.94
2023-04-11T07:04:46.813Z,23.92
2023-04-11T07:05:46.723Z,23.93
2023-04-11T07:06:46.725Z,23.95
2023-04-11T07:07:46.706Z,23.95
2023-04-11T07:08:46.735Z,23.90
2023-04-11T07:09:46.890Z,23.90
2023-04-11T07:10:46.752Z,23.87
2023-04-11T07:11:46.769Z,23.88
2023-04-11T07:12:46.787Z,23.86
2023-04-11T07:13:46.805Z,23.85
2023-04-11T07:14:46.815Z,23.83
2023-04-11T07:15:46.850Z,23.84
2023-04-11T07:16:46.869Z,23.88
2023-04-11T07:17:46.910Z,23.87
2023-04-11T07:18:46.952Z,23.85
2023-04-11T07:19:47.019Z,23.87
2023-04-11T07:20:47.071Z,23.87
2023-04-11T07:21:47.024Z,23.90
2023-04-11T07:22:47.046Z,25.00
2023-04-11T07:23:47.058Z,23.04
2023-04-11T07:24:47.107Z,22.70
2023-04-11T07:25:47.148Z,22.66
2023-04-11T07:26:47.145Z,22.63
2023-04-11T07:27:47.225Z,23.17
2023-04-11T07:28:47.272Z,23.95
2023-04-11T07:29:47.295Z,25.14
2023-04-11T07:30:47.334Z,25.55
2023-04-11T07:31:47.412Z,25.67
2023-04-11T07:32:47.436Z,26.01
2023-04-11T07:33:47.410Z,26.54
2023-04-11T07:34:48.227Z,26.87
2023-04-11T07:35:47.481Z,27.33
2023-04-11T07:36:47.503Z,27.59
2023-04-11T07:37:47.563Z,27.98
2023-04-11T07:38:47.590Z,28.34
2023-04-11T07:39:47.672Z,28.43
2023-04-11T07:40:47.620Z,28.71
2023-04-11T07:41:47.817Z,28.99
2023-04-11T07:42:47.657Z,29.18
2023-04-11T07:43:47.664Z,29.43
2023-04-11T07:44:47.697Z,29.76
2023-04-11T07:45:47.784Z,30.00
2023-04-11T07:46:47.797Z,30.14
2023-04-11T07:47:47.965Z,30.27
2023-04-11T07:48:47.894Z,30.28
2023-04-11T07:49:47.930Z,30.47
2023-04-11T07:50:47.967Z,30.58
2023-04-11T07:51:47.997Z,30.76
2023-04-11T07:52:48.003Z,30.85
2023-04-11T07:53:48.031Z,31.17
2023-04-11T07:54:48.111Z,31.27
2023-04-11T07:55:48.054Z,31.43
2023-04-11T07:56:48.054Z,31.68
2023-04-11T07:57:48.064Z,31.67
2023-04-11T07:58:48.083Z,31.98
2023-04-11T07:59:48.081Z,31.91
2023-04-11T08:00:48.071Z,32.17
2023-04-11T08:01:48.147Z,32.16
2023-04-11T08:02:48.168Z,32.28
2023-04-11T08:03:48.189Z,32.50
2023-04-11T08:04:48.183Z,32.53
2023-04-11T08:05:48.091Z,32.68
2023-04-11T08:06:48.094Z,32.76
2023-04-11T08:07:48.107Z,32.88
2023-04-11T08:08:48.113Z,33.01
2023-04-11T08:09:48.145Z,33.04
2023-04-11T08:10:50.008Z,33.18
2023-04-11T08:11:48.147Z,33.45
2023-04-11T08:12:48.177Z,33.46
2023-04-11T08:13:48.139Z,33.49
2023-04-11T08:14:48.206Z,33.46
2023-04-11T08:15:48.119Z,33.59
2023-04-11T08:16:48.155Z,33.58
2023-04-11T08:17:48.138Z,33.64
2023-04-11T08:18:48.143Z,33.65
2023-04-11T08:19:48.108Z,32.26
2023-04-11T08:20:48.096Z,31.28
2023-04-11T08:21:48.085Z,30.69
2023-04-11T08:22:48.072Z,30.44
2023-04-11T08:23:49.766Z,30.64
2023-04-11T08:24:48.747Z,30.30
2023-04-11T08:25:48.129Z,30.78
2023-04-11T08:26:48.056Z,30.60
2023-04-11T08:27:48.049Z,30.09
2023-04-11T08:28:48.061Z,30.77
2023-04-11T08:29:48.031Z,30.95
2023-04-11T08:30:48.385Z,31.11
2023-04-11T08:31:48.834Z,30.97
2023-04-11T08:32:48.109Z,31.13
2023-04-11T08:33:48.042Z,31.28
2023-04-11T08:34:48.011Z,31.42
2023-04-11T08:35:48.020Z,31.50
2023-04-11T08:36:47.989Z,31.68
2023-04-11T08:37:48.058Z,31.73
2023-04-11T08:38:47.985Z,31.87
2023-04-11T08:39:47.976Z,32.01
2023-04-11T08:40:47.969Z,32.14
2023-04-11T08:41:47.981Z,32.22
2023-04-11T08:42:48.027Z,32.24
2023-04-11T08:43:47.957Z,32.40
2023-04-11T08:44:47.938Z,32.49
2023-04-11T08:45:47.958Z,32.59
2023-04-11T08:46:47.930Z,32.89
2023-04-11T08:47:47.927Z,32.95
2023-04-11T08:48:47.917Z,33.06
2023-04-11T08:49:47.961Z,33.18
2023-04-11T08:50:47.937Z,33.34
2023-04-11T08:51:47.879Z,33.55
2023-04-11T08:52:47.873Z,33.67
2023-04-11T08:53:48.836Z,33.83
2023-04-11T08:54:47.893Z,33.99
2023-04-11T08:55:47.992Z,34.19
2023-04-11T08:56:47.998Z,34.38
2023-04-11T08:57:48.000Z,34.41
2023-04-11T08:58:48.803Z,34.47
2023-04-11T08:59:48.118Z,34.56
2023-04-11T09:00:48.170Z,34.65
2023-04-11T09:01:48.425Z,34.72
2023-04-11T09:02:48.521Z,34.82
2023-04-11T09:03:48.357Z,34.90
2023-04-11T09:04:48.460Z,34.94
2023-04-11T09:05:48.469Z,34.86
2023-04-11T09:06:48.527Z,34.97
2023-04-11T09:07:48.583Z,34.92
2023-04-11T09:08:48.642Z,34.90
2023-04-11T09:09:48.717Z,35.01
2023-04-11T09:10:48.778Z,35.06
2023-04-11T09:11:48.822Z,35.11
2023-04-11T09:12:48.879Z,35.17
2023-04-11T09:13:49.016Z,35.17
2023-04-11T09:14:49.088Z,35.44
2023-04-11T09:15:49.069Z,35.50
2023-04-11T09:16:49.103Z,35.50
2023-04-11T09:17:49.210Z,35.72
2023-04-11T09:18:49.231Z,34.77
2023-04-11T09:19:49.690Z,34.91
2023-04-11T09:20:49.300Z,34.43
2023-04-11T09:21:49.418Z,35.09
2023-04-11T09:22:49.419Z,35.03
2023-04-11T09:23:49.394Z,35.08
2023-04-11T09:24:49.463Z,35.14
2023-04-11T09:25:49.504Z,35.36
2023-04-11T09:26:49.564Z,35.35
2023-04-11T09:27:49.605Z,35.48
2023-04-11T09:28:49.666Z,35.66
2023-04-11T09:29:49.721Z,35.53
2023-04-11T09:30:50.317Z,35.68
2023-04-11T09:31:49.871Z,35.66
2023-04-11T09:32:49.895Z,35.78
2023-04-11T09:33:50.017Z,35.85
2023-04-11T09:34:50.899Z,35.90
2023-04-11T09:35:50.043Z,36.01
2023-04-11T09:36:50.105Z,36.09
2023-04-11T09:37:50.179Z,36.17
2023-04-11T09:38:50.201Z,36.23
2023-04-11T09:39:50.260Z,36.31
2023-04-11T09:40:50.318Z,36.34
2023-04-11T09:41:50.350Z,36.37
2023-04-11T09:42:50.441Z,36.44
2023-04-11T09:43:50.451Z,36.47
2023-04-11T09:44:50.489Z,36.56
2023-04-11T09:45:54.518Z,36.55
2023-04-11T09:46:51.807Z,36.70
2023-04-11T09:47:51.439Z,36.79
2023-04-11T09:48:50.522Z,36.83
2023-04-11T09:49:50.503Z,36.89
2023-04-11T09:50:50.500Z,36.96
2023-04-11T09:51:50.500Z,36.97
2023-04-11T09:52:50.484Z,36.99
2023-04-11T09:53:50.572Z,37.01
2023-04-11T09:54:50.487Z,37.05
2023-04-11T09:55:50.465Z,37.15
2023-04-11T09:56:50.551Z,37.21
2023-04-11T09:57:50.451Z,37.18
2023-04-11T09:58:51.371Z,37.33
2023-04-11T09:59:50.434Z,37.29
2023-04-11T10:00:50.418Z,37.30
2023-04-11T10:01:50.560Z,37.34
2023-04-11T10:02:50.519Z,37.37
2023-04-11T10:03:50.480Z,37.49
2023-04-11T10:04:50.400Z,37.58
2023-04-11T10:05:50.386Z,37.61
2023-04-11T10:06:50.390Z,37.71
2023-04-11T10:07:50.385Z,37.77
2023-04-11T10:08:50.382Z,37.87
2023-04-11T10:09:50.361Z,37.90
2023-04-11T10:10:50.358Z,38.00
2023-04-11T10:11:50.347Z,37.87
2023-04-11T10:12:50.338Z,37.63
2023-04-11T10:13:50.332Z,37.80
2023-04-11T10:14:50.313Z,37.82
2023-04-11T10:15:50.318Z,37.76
2023-04-11T10:16:50.328Z,37.68
2023-04-11T10:17:50.904Z,37.54
2023-04-11T10:18:50.316Z,37.41
2023-04-11T10:19:50.351Z,37.36
2023-04-11T10:20:50.502Z,37.27
2023-04-11T10:21:50.453Z,37.14
2023-04-11T10:22:50.519Z,37.04
2023-04-11T10:23:50.566Z,37.01
2023-04-11T10:24:50.629Z,36.90
2023-04-11T10:25:50.686Z,36.81
2023-04-11T10:26:50.759Z,36.65
2023-04-11T10:27:50.817Z,36.74
2023-04-11T10:28:50.879Z,36.66
2023-04-11T10:29:51.764Z,36.54
2023-04-11T10:30:50.975Z,36.42
2023-04-11T10:31:51.055Z,36.24
2023-04-11T10:32:51.107Z,36.24
2023-04-11T10:33:51.216Z,36.30
2023-04-11T10:34:51.153Z,36.04
2023-04-11T10:35:51.241Z,36.02
2023-04-11T10:36:51.215Z,35.96
2023-04-11T10:37:51.227Z,35.88
2023-04-11T10:38:51.372Z,35.69
2023-04-11T10:39:51.253Z,35.54
2023-04-11T10:40:51.254Z,35.46
2023-04-11T10:41:51.295Z,35.40
2023-04-11T10:42:51.252Z,35.39
2023-04-11T10:43:51.288Z,35.28
2023-04-11T10:44:51.304Z,35.07
2023-04-11T10:45:51.323Z,34.96
2023-04-11T10:46:51.482Z,34.89
2023-04-11T10:47:51.505Z,34.72
2023-04-11T10:48:51.886Z,34.72
2023-04-11T10:49:51.368Z,34.67
2023-04-11T10:50:51.366Z,34.49
2023-04-11T10:51:51.386Z,34.09
2023-04-11T10:52:51.445Z,34.41
2023-04-11T10:53:51.391Z,34.30
2023-04-11T10:54:51.431Z,34.13
2023-04-11T10:55:51.434Z,34.21
2023-04-11T10:56:51.432Z,34.12
2023-04-11T10:57:51.428Z,33.91
2023-04-11T10:58:51.433Z,33.97
2023-04-11T10:59:51.489Z,34.00
2023-04-11T11:00:51.552Z,33.94
2023-04-11T11:01:52.504Z,33.96
2023-04-11T11:02:51.678Z,33.83
2023-04-11T11:03:51.621Z,33.77
2023-04-11T11:04:51.710Z,33.69
2023-04-11T11:05:51.614Z,33.70
2023-04-11T11:06:56.939Z,33.59
2023-04-11T11:07:52.673Z,33.65
2023-04-11T11:08:51.623Z,33.53
2023-04-11T11:09:51.663Z,33.42
2023-04-11T11:10:51.578Z,33.41
2023-04-11T11:11:51.570Z,33.40
2023-04-11T11:12:51.569Z,33.36
2023-04-11T11:13:51.569Z,33.20
2023-04-11T11:14:52.409Z,33.22
2023-04-11T11:15:51.546Z,32.99
2023-04-11T11:16:51.556Z,32.94
2023-04-11T11:17:51.582Z,32.87
2023-04-11T11:18:51.533Z,32.86
2023-04-11T11:19:51.529Z,32.78
2023-04-11T11:20:51.563Z,32.70
2023-04-11T11:21:51.505Z,32.63
2023-04-11T11:22:51.498Z,32.45
2023-04-11T11:23:51.514Z,32.44
2023-04-11T11:24:52.434Z,32.33
2023-04-11T11:25:51.474Z,32.26
2023-04-11T11:26:51.465Z,32.18
2023-04-11T11:27:51.465Z,31.99
2023-04-11T11:28:51.469Z,31.99
2023-04-11T11:29:51.460Z,31.96
2023-04-11T11:30:52.199Z,31.87
2023-04-11T11:31:51.675Z,31.73
2023-04-11T11:32:51.688Z,31.71
2023-04-11T11:33:51.887Z,31.58
2023-04-11T11:34:51.627Z,31.50
2023-04-11T11:35:51.655Z,31.47
2023-04-11T11:36:51.663Z,31.48
2023-04-11T11:37:51.688Z,31.39
2023-04-11T11:38:51.754Z,31.40
2023-04-11T11:39:51.672Z,31.30
2023-04-11T11:40:51.679Z,31.32
2023-04-11T11:41:51.678Z,31.28
2023-04-11T11:42:51.764Z,31.12
2023-04-11T11:43:51.831Z,31.08
2023-04-11T11:44:51.746Z,30.92
2023-04-11T11:45:51.770Z,30.99
2023-04-11T11:46:51.751Z,30.95
2023-04-11T11:47:51.915Z,30.77
2023-04-11T11:48:51.817Z,30.73
2023-04-11T11:49:51.913Z,30.67
2023-04-11T11:50:51.811Z,30.67
2023-04-11T11:51:51.818Z,30.57
2023-04-11T11:52:51.816Z,30.56
2023-04-11T11:53:52.002Z,30.38
2023-04-11T11:54:51.969Z,30.29
2023-04-11T11:55:51.927Z,30.24
2023-04-11T11:56:51.954Z,30.24
2023-04-11T11:57:51.983Z,30.24
2023-04-11T11:58:52.039Z,30.24
2023-04-11T11:59:51.977Z,30.23
2023-04-11T12:00:52.056Z,30.23
2023-04-11T12:01:52.024Z,30.17
2023-04-11T12:02:52.161Z,30.14
2023-04-11T12:03:53.069Z,30.12
2023-04-11T12:04:53.102Z,30.04
2023-04-11T12:05:51.979Z,30.01
2023-04-11T12:06:51.966Z,29.98
2023-04-11T12:07:51.972Z,29.92
2023-04-11T12:08:52.011Z,29.84
2023-04-11T12:09:51.971Z,29.79
2023-04-11T12:10:52.042Z,29.39
2023-04-11T12:11:51.964Z,28.16
2023-04-11T12:12:53.199Z,27.97
2023-04-11T12:13:52.090Z,28.40
2023-04-11T12:14:52.008Z,28.96
2023-04-11T12:15:52.065Z,29.33
2023-04-11T12:16:52.047Z,30.17
2023-04-11T12:17:52.120Z,29.94
2023-04-11T12:18:52.075Z,30.71
2023-04-11T12:19:52.084Z,30.78
2023-04-11T12:20:52.126Z,30.87
2023-04-11T12:21:52.117Z,30.84
2023-04-11T12:22:54.128Z,30.40
2023-04-11T12:23:52.431Z,30.22
2023-04-11T12:24:52.320Z,30.24
2023-04-11T12:25:52.425Z,30.58
2023-04-11T12:27:06.324Z,30.66
2023-04-11T12:27:53.923Z,30.64
2023-04-11T12:28:52.347Z,30.35
2023-04-11T12:29:52.331Z,30.31
2023-04-11T12:30:52.388Z,30.46
2023-04-11T12:31:52.354Z,30.45
2023-04-11T12:32:52.428Z,30.31
2023-04-11T12:33:52.335Z,30.04
2023-04-11T12:34:52.306Z,30.06
2023-04-11T12:35:52.287Z,30.33
2023-04-11T12:36:52.361Z,30.17
2023-04-11T12:37:52.367Z,30.02
2023-04-11T12:38:52.284Z,30.00
2023-04-11T12:39:52.317Z,30.00
2023-04-11T12:40:56.854Z,30.14
2023-04-11T12:41:53.262Z,30.02
2023-04-11T12:43:52.254Z,29.96
2023-04-11T12:44:52.243Z,29.96
2023-04-11T12:45:52.237Z,30.13
2023-04-11T12:46:52.267Z,30.21
2023-04-11T12:47:52.337Z,30.11
2023-04-11T12:48:52.224Z,29.96
2023-04-11T12:49:52.227Z,29.94
2023-04-11T12:50:52.203Z,29.95
2023-04-11T12:51:52.233Z,29.98
2023-04-11T12:52:52.190Z,29.93
2023-04-11T12:53:52.187Z,29.91